Time;durP1;ratioP1;P1;durP2;ratioP2;P2;SDS_P1;SDS_P2;PMS_P1;PMS_P2;Temp;Humidity;BMP_temperature;BMP_pressure;BME280_temperature;BME280_humidity;BME280_pressure;Samples;Min_cycle;Max_cycle;Signal;HPM_P1;HPM_P2
2023/05/27 00:01:37;;;;;;;7.68;5.55;;;;;;;16.26;100.00;98998.84;4485919;32;20084;-66
2023/05/27 00:04:04;;;;;;;8.65;6.00;;;;;;;16.24;100.00;99008.78;4484406;32;20484;-66
2023/05/27 00:06:32;;;;;;;9.27;6.45;;;;;;;16.20;100.00;99010.09;4485772;32;20092;-66
2023/05/27 00:08:59;;;;;;;8.23;5.47;;;;;;;16.18;100.00;99012.91;4486125;31;20553;-66
2023/05/27 00:11:27;;;;;;;9.57;6.05;;;;;;;16.13;100.00;99007.31;4485699;32;20096;-66
2023/05/27 00:13:54;;;;;;;7.97;5.78;;;;;;;16.11;100.00;99002.19;4471729;31;20413;-66
2023/05/27 00:16:21;;;;;;;10.23;6.40;;;;;;;16.11;100.00;98999.53;4481347;32;20096;-66
2023/05/27 00:18:49;;;;;;;12.02;7.05;;;;;;;16.08;100.00;98994.59;4485707;31;20130;-66
2023/05/27 00:21:16;;;;;;;12.68;6.55;;;;;;;16.05;100.00;98989.63;4484515;32;20179;-66
2023/05/27 00:23:47;;;;;;;9.77;6.43;;;;;;;16.03;100.00;98993.44;4485718;32;20453;-66
2023/05/27 00:26:14;;;;;;;14.98;6.80;;;;;;;15.99;100.00;99000.03;4485790;31;20387;-66
2023/05/27 00:28:44;;;;;;;10.57;6.60;;;;;;;15.97;100.00;99002.84;4485722;31;20104;-66
2023/05/27 00:31:11;;;;;;;8.95;6.03;;;;;;;15.95;100.00;99004.84;4485792;32;20631;-66
2023/05/27 00:33:39;;;;;;;10.85;6.87;;;;;;;15.97;100.00;98997.56;4485997;32;20113;-66
2023/05/27 00:36:06;;;;;;;10.25;6.00;;;;;;;15.92;100.00;99003.34;4485478;31;20096;-66
2023/05/27 00:38:33;;;;;;;11.23;7.37;;;;;;;15.93;100.00;98990.97;4485719;31;20108;-66
2023/05/27 00:41:02;;;;;;;12.23;6.43;;;;;;;15.91;100.00;98990.28;4485484;32;20092;-66
2023/05/27 00:43:33;;;;;;;10.55;6.68;;;;;;;15.86;100.00;98992.63;4485654;32;20087;-66
2023/05/27 00:46:00;;;;;;;14.35;7.55;;;;;;;15.82;100.00;98988.66;4485680;32;20137;-66
2023/05/27 00:48:28;;;;;;;10.02;6.47;;;;;;;15.79;100.00;98990.66;4484630;32;20466;-66
2023/05/27 00:50:55;;;;;;;10.15;6.75;;;;;;;15.75;100.00;98999.03;4485329;31;20121;-66
2023/05/27 00:53:23;;;;;;;9.93;6.43;;;;;;;15.75;100.00;98986.63;4485756;31;20484;-66
2023/05/27 00:55:55;;;;;;;10.68;6.93;;;;;;;15.73;100.00;98993.06;4485507;31;20172;-66
2023/05/27 00:58:23;;;;;;;10.38;7.03;;;;;;;15.75;100.00;98994.56;4484602;32;20096;-66
2023/05/27 01:00:50;;;;;;;11.88;6.50;;;;;;;15.69;100.00;98994.41;4483815;32;20104;-66
2023/05/27 01:03:20;;;;;;;10.82;7.07;;;;;;;15.66;100.00;98992.91;4485461;31;20152;-66
2023/05/27 01:05:47;;;;;;;13.50;7.18;;;;;;;15.63;100.00;98997.72;4484992;32;20118;-66
2023/05/27 01:08:31;;;;;;;13.18;7.07;;;;;;;15.63;100.00;98990.59;4485629;31;20164;-66
2023/05/27 01:10:58;;;;;;;10.93;6.80;;;;;;;15.63;100.00;98995.87;4484292;32;20150;-66
2023/05/27 01:13:40;;;;;;;12.37;7.10;;;;;;;15.63;100.00;98995.87;4462393;32;20113;-66
2023/05/27 01:16:13;;;;;;;12.18;7.18;;;;;;;15.61;100.00;98990.78;4473564;32;20122;-66
2023/05/27 01:18:46;;;;;;;9.98;7.32;;;;;;;15.63;100.00;98985.31;4484165;32;20080;-67
2023/05/27 01:21:18;;;;;;;12.43;7.28;;;;;;;15.64;100.00;98991.41;4485407;31;20127;-66
2023/05/27 01:23:49;;;;;;;10.57;7.07;;;;;;;15.66;100.00;98985.00;4485256;31;20080;-66
2023/05/27 01:26:16;;;;;;;11.77;7.50;;;;;;;15.66;100.00;98987.63;4485194;31;20138;-66
2023/05/27 01:28:44;;;;;;;9.90;6.75;;;;;;;15.63;100.00;98987.97;4485384;32;20131;-66
2023/05/27 01:31:34;;;;;;;12.75;7.00;;;;;;;15.65;100.00;98983.34;4485283;31;20577;-66
2023/05/27 01:34:07;;;;;;;9.93;6.75;;;;;;;15.66;100.00;98979.72;4484526;32;20131;-66
2023/05/27 01:36:47;;;;;;;14.45;6.70;;;;;;;15.63;100.00;98980.03;4485456;31;20119;-66
2023/05/27 01:39:15;;;;;;;12.00;7.35;;;;;;;15.61;100.00;98974.94;4484216;32;20099;-66
2023/05/27 01:41:43;;;;;;;11.98;7.05;;;;;;;15.66;100.00;98978.91;4484097;32;20124;-66
2023/05/27 01:44:17;;;;;;;13.82;7.10;;;;;;;15.63;100.00;98977.41;4485539;31;20119;-66
2023/05/27 01:46:45;;;;;;;10.07;7.10;;;;;;;15.60;100.00;98977.72;4484159;32;20089;-66
2023/05/27 01:49:12;;;;;;;12.02;6.95;;;;;;;15.56;100.00;98976.41;4485198;31;20496;-66
2023/05/27 01:51:39;;;;;;;11.60;7.50;;;;;;;15.57;100.00;98976.22;4485016;32;20122;-66
2023/05/27 01:54:08;;;;;;;10.65;7.25;;;;;;;15.52;100.00;98972.44;4485439;32;20126;-66
2023/05/27 01:56:35;;;;;;;14.82;8.13;;;;;;;15.47;100.00;98970.28;4485086;31;20140;-66
2023/05/27 01:59:02;;;;;;;9.35;6.72;;;;;;;15.49;100.00;98965.69;4485271;32;20579;-66
2023/05/27 02:01:30;;;;;;;9.13;7.00;;;;;;;15.47;100.00;98972.09;4485257;32;20088;-66
2023/05/27 02:03:58;;;;;;;10.38;7.25;;;;;;;15.37;100.00;98969.63;4485324;31;20138;-66
2023/05/27 02:06:26;;;;;;;9.68;7.00;;;;;;;15.34;100.00;98967.31;4484984;31;20084;-66
2023/05/27 02:08:53;;;;;;;12.77;8.00;;;;;;;15.30;100.00;98976.53;4485132;31;20130;-66
2023/05/27 02:11:21;;;;;;;13.35;7.85;;;;;;;15.28;100.00;98974.06;4485116;32;20403;-66
2023/05/27 02:13:49;;;;;;;11.68;7.25;;;;;;;15.24;100.00;98970.09;4471796;31;20525;-66
2023/05/27 02:16:16;;;;;;;12.18;7.53;;;;;;;15.24;100.00;98965.63;4479473;32;20163;-66
2023/05/27 02:18:44;;;;;;;14.02;7.70;;;;;;;15.32;100.00;98962.19;4484529;31;20097;-66
2023/05/27 02:21:11;;;;;;;13.40;8.05;;;;;;;15.23;100.00;98969.28;4484906;32;20130;-66
2023/05/27 02:23:39;;;;;;;11.00;7.32;;;;;;;15.22;100.00;98974.72;4484914;31;20103;-66
2023/05/27 02:26:07;;;;;;;13.62;8.00;;;;;;;15.21;100.00;98973.88;4484809;31;20088;-66
2023/05/27 02:28:34;;;;;;;11.15;7.25;;;;;;;15.18;100.00;98973.38;4484626;31;20439;-66
2023/05/27 02:31:02;;;;;;;11.12;7.35;;;;;;;15.10;100.00;98971.56;4484729;32;20092;-66
2023/05/27 02:33:30;;;;;;;12.48;7.57;;;;;;;15.11;100.00;98967.09;4484710;32;20133;-66
2023/05/27 02:35:57;;;;;;;10.25;7.05;;;;;;;15.05;100.00;98972.03;4484720;31;20100;-66
2023/05/27 02:38:25;;;;;;;12.02;7.55;;;;;;;14.99;100.00;98970.03;4484801;32;20093;-66
2023/05/27 02:40:52;;;;;;;15.50;7.78;;;;;;;14.98;100.00;98972.84;4484460;31;20100;-66
2023/05/27 02:43:20;;;;;;;14.57;7.28;;;;;;;14.96;100.00;98978.28;4484511;32;20110;-66
2023/05/27 02:45:47;;;;;;;9.77;6.95;;;;;;;14.98;100.00;98980.75;4484608;32;20104;-66
2023/05/27 02:48:16;;;;;;;12.00;7.30;;;;;;;14.95;100.00;98973.16;4484335;31;20092;-66
2023/05/27 02:50:43;;;;;;;11.75;7.20;;;;;;;15.00;100.00;98974.31;4484429;32;20093;-66
2023/05/27 02:53:11;;;;;;;11.55;7.40;;;;;;;15.00;100.00;98974.31;4484596;32;20122;-66
2023/05/27 02:55:39;;;;;;;9.25;6.78;;;;;;;15.07;100.00;98974.50;4484634;32;20101;-66
2023/05/27 02:58:06;;;;;;;13.48;7.65;;;;;;;15.04;100.00;98970.38;4484553;32;20148;-66
2023/05/27 03:00:34;;;;;;;13.68;7.05;;;;;;;15.06;100.00;98973.69;4484088;31;20152;-66
2023/05/27 03:03:04;;;;;;;11.68;7.12;;;;;;;15.07;100.00;98969.22;4484159;31;20088;-66
2023/05/27 03:05:31;;;;;;;12.50;7.30;;;;;;;15.11;100.00;98969.72;4484425;31;20502;-66
2023/05/27 03:07:59;;;;;;;13.43;6.82;;;;;;;15.14;100.00;98974.69;4484126;32;20093;-66
2023/05/27 03:10:26;;;;;;;10.88;7.55;;;;;;;15.16;100.00;98968.25;4484239;31;20123;-66
2023/05/27 03:12:55;;;;;;;10.75;7.20;;;;;;;15.20;100.00;98976.66;4476723;32;20136;-66
2023/05/27 03:15:24;;;;;;;10.65;6.85;;;;;;;15.22;100.00;98975.53;4473579;32;20202;-66
2023/05/27 03:17:52;;;;;;;12.00;7.22;;;;;;;15.20;100.00;98971.41;4484139;32;20088;-66
2023/05/27 03:20:19;;;;;;;9.90;7.00;;;;;;;15.18;100.00;98978.66;4484065;31;20444;-66
2023/05/27 03:22:47;;;;;;;10.30;7.25;;;;;;;15.19;100.00;98975.84;4483790;31;20543;-66
2023/05/27 03:25:14;;;;;;;13.77;7.90;;;;;;;15.18;100.00;98987.37;4483013;32;20092;-66
2023/05/27 03:27:42;;;;;;;10.18;6.80;;;;;;;15.18;100.00;98989.22;4484267;31;20096;-66
2023/05/27 03:30:11;;;;;;;11.07;7.12;;;;;;;15.19;100.00;98982.97;4486457;32;20180;-66
2023/05/27 03:32:39;;;;;;;16.95;7.75;;;;;;;15.25;100.00;98990.22;4486416;32;20176;-66
2023/05/27 03:35:07;;;;;;;11.30;7.45;;;;;;;15.28;100.00;98989.91;4486395;32;20101;-66
2023/05/27 03:37:35;;;;;;;11.48;7.30;;;;;;;15.29;100.00;98988.06;4484811;32;20172;-66
2023/05/27 03:40:03;;;;;;;11.20;7.43;;;;;;;15.29;100.00;98988.91;4486535;31;20100;-66
2023/05/27 03:42:31;;;;;;;12.70;7.32;;;;;;;15.34;100.00;98996.34;4486212;31;20155;-66
2023/05/27 03:44:59;;;;;;;16.73;7.80;;;;;;;15.30;100.00;98990.56;4486343;32;20157;-66
2023/05/27 03:47:26;;;;;;;14.48;7.43;;;;;;;15.31;100.00;98994.84;4486106;31;20638;-66
2023/05/27 03:49:53;;;;;;;11.98;7.70;;;;;;;15.30;100.00;98990.56;4486095;32;20096;-66
2023/05/27 03:52:21;;;;;;;20.27;8.00;;;;;;;15.36;100.00;98995.19;4486327;32;20187;-66
2023/05/27 03:54:49;;;;;;;10.15;6.62;;;;;;;15.47;100.00;98985.31;4486190;31;20808;-66
2023/05/27 03:57:16;;;;;;;12.05;6.68;;;;;;;15.53;100.00;98998.66;4486025;32;20126;-66
2023/05/27 03:59:43;;;;;;;13.18;7.15;;;;;;;15.64;100.00;98994.91;4486132;32;20092;-66
2023/05/27 04:02:11;;;;;;;16.90;6.85;;;;;;;15.75;100.00;98996.41;4485843;31;20142;-66
2023/05/27 04:04:38;;;;;;;17.08;6.93;;;;;;;15.85;100.00;99004.16;4485920;31;20111;-66
2023/05/27 04:07:07;;;;;;;13.65;7.68;;;;;;;15.94;100.00;99001.38;4485833;31;20118;-66
2023/05/27 04:09:34;;;;;;;10.60;6.93;;;;;;;16.02;100.00;99010.28;4485855;31;20092;-66
2023/05/27 04:12:02;;;;;;;17.52;7.87;;;;;;;16.06;100.00;99001.03;4484373;32;20100;-66
2023/05/27 04:14:29;;;;;;;11.60;7.12;;;;;;;16.07;100.00;98994.75;4470157;32;20127;-66
2023/05/27 04:16:58;;;;;;;8.93;6.70;;;;;;;16.15;100.00;98997.38;4485201;32;20096;-66
2023/05/27 04:19:25;;;;;;;10.07;6.95;;;;;;;16.17;100.00;98998.06;4485563;31;20084;-66
2023/05/27 04:21:54;;;;;;;10.50;6.20;;;;;;;16.34;100.00;98998.84;4485711;31;20096;-66
2023/05/27 04:24:22;;;;;;;9.27;6.53;;;;;;;16.56;100.00;98999.12;4485948;32;20171;-66
2023/05/27 04:26:50;;;;;;;12.02;6.60;;;;;;;16.67;100.00;99006.69;4485972;32;20490;-66
2023/05/27 04:29:17;;;;;;;9.80;7.57;;;;;;;16.79;100.00;99007.12;4485644;31;20172;-66
2023/05/27 04:31:47;;;;;;;9.32;6.32;;;;;;;17.06;100.00;99008.53;4486124;32;20164;-66
2023/05/27 04:34:15;;;;;;;13.80;6.60;;;;;;;17.09;100.00;99018.78;4486102;31;20092;-66
2023/05/27 04:36:43;;;;;;;10.80;7.32;;;;;;;17.20;100.00;99013.09;4485930;32;20088;-66
2023/05/27 04:39:11;;;;;;;15.70;6.53;;;;;;;17.31;100.00;99019.00;4485609;31;20108;-66
2023/05/27 04:41:39;;;;;;;11.02;6.75;;;;;;;17.33;100.00;99025.75;4485579;31;20100;-66
2023/05/27 04:44:08;;;;;;;9.45;6.45;;;;;;;17.40;100.00;99025.91;4485896;32;20114;-66
2023/05/27 04:46:38;;;;;;;8.93;6.03;;;;;;;17.63;100.00;99025.91;4484454;32;20112;-66
2023/05/27 04:49:06;;;;;;;8.45;6.45;;;;;;;17.63;100.00;99019.81;4485655;31;20117;-66
2023/05/27 04:51:35;;;;;;;9.80;6.28;;;;;;;17.71;100.00;99025.03;4485643;32;20095;-66
2023/05/27 04:54:03;;;;;;;11.27;6.03;;;;;;;17.83;100.00;99026.25;4486140;31;20092;-66
2023/05/27 04:56:32;;;;;;;8.45;6.05;;;;;;;17.89;100.00;99030.88;4485835;31;20100;-66
2023/05/27 04:58:59;;;;;;;10.13;6.35;;;;;;;17.99;100.00;99033.28;4485465;31;20446;-66
2023/05/27 05:01:29;;;;;;;10.98;6.53;;;;;;;17.90;100.00;99034.38;4485829;32;20109;-66
2023/05/27 05:04:12;;;;;;;9.90;6.60;;;;;;;18.13;100.00;99031.69;4485691;31;20096;-66
2023/05/27 05:06:40;;;;;;;12.57;5.37;;;;;;;17.97;100.00;99034.47;4485856;31;20092;-66
2023/05/27 05:09:09;;;;;;;10.07;6.40;;;;;;;17.94;100.00;99042.78;4485285;31;20482;-66
2023/05/27 05:11:37;;;;;;;10.95;6.93;;;;;;;17.72;100.00;99037.28;4485772;31;20104;-66
2023/05/27 05:14:04;;;;;;;9.40;5.82;;;;;;;17.90;100.00;99043.13;4470521;31;20097;-66
2023/05/27 05:16:32;;;;;;;11.68;7.68;;;;;;;18.03;100.00;99041.69;4482158;32;20133;-67
2023/05/27 05:18:59;;;;;;;11.32;6.20;;;;;;;18.07;100.00;99048.31;4485573;32;20100;-66
2023/05/27 05:21:27;;;;;;;12.25;6.80;;;;;;;17.99;100.00;99045.72;4485629;32;20438;-66
2023/05/27 05:23:56;;;;;;;9.65;5.95;;;;;;;18.07;100.00;99050.97;4483899;32;20160;-66
2023/05/27 05:26:23;;;;;;;11.40;5.72;;;;;;;18.26;100.00;99044.34;4485306;31;20127;-67
2023/05/27 05:28:50;;;;;;;8.25;5.95;;;;;;;18.38;98.40;99045.53;4485438;32;20442;-66
2023/05/27 05:31:17;;;;;;;8.05;5.55;;;;;;;18.46;98.10;99052.59;4485684;31;20122;-66
2023/05/27 05:33:45;;;;;;;15.75;5.85;;;;;;;18.80;99.58;99040.63;4485093;31;20168;-66
2023/05/27 05:36:12;;;;;;;16.73;6.05;;;;;;;18.89;92.60;99052.00;4485448;32;20088;-66
2023/05/27 05:38:43;;;;;;;10.43;6.07;;;;;;;18.78;94.41;99053.25;4485426;31;20386;-66
2023/05/27 05:41:10;;;;;;;9.95;5.45;;;;;;;18.98;92.90;99050.88;4485585;32;20095;-66
2023/05/27 05:43:38;;;;;;;11.75;6.10;;;;;;;19.17;90.35;99048.66;4485426;32;20164;-66
2023/05/27 05:46:07;;;;;;;9.05;5.50;;;;;;;18.97;87.35;99058.03;4485413;32;20254;-66
2023/05/27 05:48:34;;;;;;;9.07;5.40;;;;;;;18.86;86.14;99047.06;4485464;31;20092;-67
2023/05/27 05:51:02;;;;;;;8.43;5.60;;;;;;;18.87;85.06;99054.03;4483998;32;20120;-66
2023/05/27 05:53:32;;;;;;;7.32;4.90;;;;;;;19.06;85.87;99058.78;4485451;31;20171;-66
2023/05/27 05:55:59;;;;;;;8.27;5.25;;;;;;;19.18;87.92;99059.09;4485389;31;20121;-67
2023/05/27 05:58:26;;;;;;;12.20;5.80;;;;;;;19.13;83.78;99069.47;4485274;32;20213;-66
2023/05/27 06:00:53;;;;;;;10.57;5.57;;;;;;;19.27;84.55;99063.31;4484959;32;20119;-66
2023/05/27 06:03:22;;;;;;;12.65;5.18;;;;;;;19.59;84.53;99071.00;4485340;32;20498;-66
2023/05/27 06:05:50;;;;;;;9.73;5.07;;;;;;;19.83;81.03;99076.03;4485248;32;20096;-67
2023/05/27 06:08:17;;;;;;;14.00;5.12;;;;;;;20.00;80.78;99081.91;4485132;32;20453;-67
2023/05/27 06:10:45;;;;;;;9.07;5.20;;;;;;;20.10;76.34;99078.09;4484854;32;20131;-67
2023/05/27 06:13:12;;;;;;;8.15;4.50;;;;;;;20.12;74.75;99084.03;4475963;32;20148;-66
2023/05/27 06:15:39;;;;;;;11.98;5.30;;;;;;;19.95;74.56;99078.16;4476215;32;20100;-66
2023/05/27 06:18:07;;;;;;;9.30;5.15;;;;;;;19.84;76.17;99084.81;4485300;31;20092;-67
2023/05/27 06:20:34;;;;;;;12.55;5.07;;;;;;;19.78;77.10;99091.69;4484852;32;20087;-66
2023/05/27 06:23:02;;;;;;;12.37;5.93;;;;;;;19.77;75.68;99091.84;4484750;32;20454;-66
2023/05/27 06:25:31;;;;;;;10.00;5.30;;;;;;;19.75;76.65;99096.56;4485104;31;20477;-67
2023/05/27 06:27:59;;;;;;;9.27;5.22;;;;;;;19.80;76.85;99102.13;4485154;32;20520;-66
2023/05/27 06:30:26;;;;;;;10.30;5.43;;;;;;;19.86;75.63;99101.37;4484740;31;20123;-67
2023/05/27 06:32:56;;;;;;;11.27;4.95;;;;;;;19.91;75.49;99099.00;4485075;31;20108;-67
2023/05/27 06:35:24;;;;;;;17.10;5.15;;;;;;;20.02;73.35;99106.47;4483573;32;20157;-66
2023/05/27 06:37:51;;;;;;;8.15;4.72;;;;;;;19.90;73.65;99100.00;4484854;31;20104;-66
2023/05/27 06:40:19;;;;;;;9.77;4.97;;;;;;;19.81;72.25;99101.94;4484820;32;20097;-67
2023/05/27 06:42:46;;;;;;;7.87;4.78;;;;;;;19.69;73.58;99109.56;4484621;32;20088;-66
2023/05/27 06:45:13;;;;;;;10.90;4.40;;;;;;;20.04;72.95;99106.28;4484667;32;20105;-66
2023/05/27 06:47:41;;;;;;;9.10;4.97;;;;;;;20.25;72.67;99109.94;4484289;32;20591;-67
2023/05/27 06:50:11;;;;;;;9.38;4.43;;;;;;;20.29;69.84;99103.22;4484637;31;20126;-66
2023/05/27 06:52:41;;;;;;;9.35;4.00;;;;;;;19.88;70.78;99115.34;4484503;31;20140;-67
2023/05/27 06:55:09;;;;;;;7.80;4.68;;;;;;;20.05;69.90;99123.06;4484560;32;20157;-66
2023/05/27 06:57:40;;;;;;;9.18;4.28;;;;;;;20.32;70.26;99111.66;4484483;32;20089;-67
2023/05/27 07:00:08;;;;;;;16.30;4.47;;;;;;;20.51;66.75;99109.31;4484434;32;20119;-66
2023/05/27 07:02:38;;;;;;;9.60;5.05;;;;;;;20.67;65.09;99113.59;4484610;32;20089;-66
2023/05/27 07:05:06;;;;;;;8.50;4.20;;;;;;;20.76;64.36;99117.75;4486500;32;20448;-66
2023/05/27 07:07:33;;;;;;;8.73;4.57;;;;;;;21.35;65.61;99112.94;4486522;31;20137;-67
2023/05/27 07:10:00;;;;;;;11.27;4.25;;;;;;;21.92;61.34;99116.22;4486538;32;20149;-67
2023/05/27 07:12:28;;;;;;;12.10;4.45;;;;;;;22.12;58.84;99121.56;4481866;32;20062;-67
2023/05/27 07:14:56;;;;;;;10.68;4.90;;;;;;;21.91;58.43;99118.06;4472507;32;20085;-67
2023/05/27 07:17:24;;;;;;;9.45;4.57;;;;;;;21.73;59.62;99115.97;4486282;31;20390;-67
2023/05/27 07:19:51;;;;;;;6.35;4.10;;;;;;;21.78;57.36;99120.69;4485211;32;20151;-67
2023/05/27 07:22:19;;;;;;;14.05;4.53;;;;;;;21.69;58.61;99133.38;4485007;31;20112;-67
2023/05/27 07:24:47;;;;;;;8.05;4.25;;;;;;;21.37;59.58;99119.69;4485044;32;20167;-67
2023/05/27 07:27:14;;;;;;;8.32;4.07;;;;;;;20.81;61.61;99135.78;4486161;31;20153;-66
2023/05/27 07:29:42;;;;;;;23.50;4.53;;;;;;;20.90;61.11;99134.63;4485045;31;20141;-67
2023/05/27 07:32:13;;;;;;;11.02;4.60;;;;;;;20.86;60.58;99131.53;4486525;31;20143;-68
2023/05/27 07:34:41;;;;;;;14.87;4.43;;;;;;;20.91;61.34;99128.28;4486056;32;20113;-67
2023/05/27 07:37:08;;;;;;;13.10;4.70;;;;;;;21.13;60.23;99125.53;4485826;32;20569;-67
2023/05/27 07:39:35;;;;;;;7.30;4.07;;;;;;;21.62;61.34;99127.22;4484662;32;20103;-67
2023/05/27 07:42:03;;;;;;;7.47;4.12;;;;;;;21.82;60.66;99124.59;4484795;32;20167;-67
2023/05/27 07:44:30;;;;;;;6.87;4.53;;;;;;;22.06;59.17;99128.56;4484920;32;20092;-67
2023/05/27 07:46:58;;;;;;;12.40;4.55;;;;;;;21.91;57.99;99117.25;4484971;31;20168;-67
2023/05/27 07:49:25;;;;;;;9.32;4.10;;;;;;;21.98;58.46;99118.91;4484999;32;20100;-67
2023/05/27 07:51:54;;;;;;;38.15;5.72;;;;;;;22.07;57.47;99118.69;4485736;31;20088;-67
2023/05/27 07:54:23;;;;;;;10.98;4.28;;;;;;;22.32;56.85;99126.97;4484886;32;20164;-67
2023/05/27 07:56:50;;;;;;;5.25;3.60;;;;;;;22.19;56.41;99119.72;4485776;32;20152;-67
2023/05/27 07:59:17;;;;;;;7.20;4.00;;;;;;;22.31;56.23;99119.97;4486010;32;20122;-67
2023/05/27 08:01:45;;;;;;;13.35;4.53;;;;;;;22.41;56.27;99120.41;4485690;32;20076;-67
2023/05/27 08:04:12;;;;;;;10.77;4.12;;;;;;;22.35;53.79;99126.56;4484826;32;20096;-67
2023/05/27 08:06:51;;;;;;;8.98;4.40;;;;;;;22.25;55.09;99115.44;4485719;32;20096;-67
2023/05/27 08:09:18;;;;;;;6.95;3.60;;;;;;;22.46;56.62;99112.59;4485784;31;20118;-67
2023/05/27 08:11:49;;;;;;;21.10;5.70;;;;;;;23.20;55.36;99115.97;4485508;32;20115;-67
2023/05/27 08:14:17;;;;;;;8.75;3.92;;;;;;;23.26;52.10;99124.19;4469388;32;20445;-67
2023/05/27 08:16:45;;;;;;;9.38;4.50;;;;;;;23.14;52.60;99113.34;4483542;32;20134;-67
2023/05/27 08:19:12;;;;;;;7.37;3.80;;;;;;;23.24;52.94;99107.53;4485939;32;20100;-67
2023/05/27 08:21:40;;;;;;;16.83;5.53;;;;;;;23.87;50.84;99104.16;4486027;32;20139;-67
2023/05/27 08:24:08;;;;;;;8.88;3.87;;;;;;;23.81;52.22;99118.38;4485892;32;20088;-67
2023/05/27 08:26:36;;;;;;;8.02;3.97;;;;;;;23.48;50.87;99114.84;4485750;31;20116;-67
2023/05/27 08:29:05;;;;;;;5.37;3.95;;;;;;;23.52;50.68;99115.25;4485965;32;20103;-67
2023/05/27 08:31:33;;;;;;;29.73;4.95;;;;;;;23.48;52.74;99104.16;4485524;32;20432;-67
2023/05/27 08:34:01;;;;;;;16.75;4.75;;;;;;;23.41;51.73;99114.06;4485895;32;20088;-67
2023/05/27 08:36:28;;;;;;;6.32;4.18;;;;;;;23.47;50.97;99115.88;4485478;32;20161;-67
2023/05/27 08:38:56;;;;;;;18.17;4.28;;;;;;;23.69;52.66;99111.03;4484103;32;20112;-67
2023/05/27 08:41:23;;;;;;;11.52;4.00;;;;;;;23.62;50.45;99112.09;4485855;31;20110;-68
2023/05/27 08:43:51;;;;;;;8.52;3.97;;;;;;;24.05;49.85;99104.25;4484217;32;20115;-67
2023/05/27 08:46:23;;;;;;;8.18;4.28;;;;;;;24.34;51.24;99111.88;4484354;32;20096;-67
2023/05/27 08:48:53;;;;;;;9.48;3.60;;;;;;;23.72;50.68;99117.81;4485537;31;20160;-67
2023/05/27 08:51:20;;;;;;;17.52;5.30;;;;;;;24.07;48.66;99106.72;4485572;31;20122;-67
2023/05/27 08:53:48;;;;;;;7.28;4.05;;;;;;;24.34;49.65;99117.22;4485499;31;20467;-67
2023/05/27 08:56:18;;;;;;;9.23;4.28;;;;;;;24.14;51.91;99110.16;4485701;31;20100;-67
2023/05/27 08:58:46;;;;;;;10.50;5.03;;;;;;;24.77;47.78;99111.13;4485516;31;20477;-67
2023/05/27 09:01:18;;;;;;;10.43;4.15;;;;;;;24.51;47.05;99110.28;4484300;32;20096;-67
2023/05/27 09:03:45;;;;;;;12.68;4.75;;;;;;;24.33;49.03;99113.75;4485394;31;20370;-68
2023/05/27 09:06:13;;;;;;;11.27;4.35;;;;;;;24.45;48.94;99108.47;4485659;32;20096;-67
2023/05/27 09:08:40;;;;;;;38.33;5.82;;;;;;;24.46;48.25;99110.13;4485232;32;20155;-67
2023/05/27 09:11:26;;;;;;;13.90;4.03;;;;;;;24.20;46.52;99109.28;4485605;31;20154;-67
2023/05/27 09:13:56;;;;;;;11.55;4.50;;;;;;;23.92;47.22;99112.34;4456713;32;20081;-67
2023/05/27 09:16:24;;;;;;;10.35;4.65;;;;;;;23.44;48.40;99116.31;4477012;32;20184;-67
2023/05/27 09:18:51;;;;;;;10.95;4.85;;;;;;;23.74;49.41;99107.72;4485119;31;20209;-67
2023/05/27 09:21:18;;;;;;;11.93;4.45;;;;;;;23.95;48.62;99098.56;4485260;32;20104;-67
2023/05/27 09:23:46;;;;;;;9.85;4.47;;;;;;;24.30;48.89;99102.63;4485115;32;20152;-67
2023/05/27 09:26:13;;;;;;;32.28;5.50;;;;;;;24.35;46.84;99110.84;4484871;31;20115;-67
2023/05/27 09:28:41;;;;;;;11.25;4.37;;;;;;;24.30;47.93;99105.31;4485240;31;20100;-67
2023/05/27 09:31:09;;;;;;;5.35;4.03;;;;;;;24.57;47.40;99104.06;4485349;31;20118;-67
2023/05/27 09:33:40;;;;;;;5.75;3.87;;;;;;;24.65;44.91;99107.50;4485359;31;20160;-67
2023/05/27 09:36:08;;;;;;;8.13;3.95;;;;;;;25.01;44.24;99104.03;4485306;31;20085;-67
2023/05/27 09:38:36;;;;;;;9.55;4.25;;;;;;;25.54;45.25;99099.09;4483859;32;20108;-67
2023/05/27 09:41:04;;;;;;;7.25;3.95;;;;;;;25.23;43.03;99104.41;4485164;31;20104;-68
2023/05/27 09:43:32;;;;;;;10.60;4.45;;;;;;;24.51;45.81;99099.59;4485154;32;20187;-67
2023/05/27 09:46:01;;;;;;;6.80;4.40;;;;;;;24.44;45.16;99096.13;4485226;31;20126;-67
2023/05/27 09:48:31;;;;;;;10.10;4.65;;;;;;;24.61;47.96;99107.13;4485046;31;20445;-67
2023/05/27 09:51:00;;;;;;;10.20;3.92;;;;;;;24.00;44.88;99100.59;4485244;31;20084;-67
2023/05/27 09:53:28;;;;;;;7.22;4.25;;;;;;;24.43;47.02;99097.16;4484959;31;20149;-67
2023/05/27 09:55:56;;;;;;;6.87;4.20;;;;;;;24.34;46.14;99099.28;4485198;31;20089;-67
2023/05/27 09:58:24;;;;;;;7.62;4.55;;;;;;;24.71;45.60;99096.75;4485044;31;20172;-67
2023/05/27 10:00:52;;;;;;;13.40;4.35;;;;;;;24.81;44.58;99096.22;4478363;31;212165;-67
2023/05/27 10:03:24;;;;;;;8.68;3.92;;;;;;;25.26;44.30;99101.28;4484661;31;20269;-67
2023/05/27 10:05:51;;;;;;;6.25;4.40;;;;;;;25.48;43.75;99090.09;4484923;32;20131;-67
2023/05/27 10:08:19;;;;;;;9.77;4.40;;;;;;;25.39;45.31;99091.47;4484796;31;20438;-67
2023/05/27 10:10:50;;;;;;;11.57;4.45;;;;;;;24.80;44.71;99083.88;4484908;32;20127;-67
2023/05/27 10:13:19;;;;;;;9.25;4.22;;;;;;;24.76;44.83;99085.34;4474986;31;20410;-67
2023/05/27 10:15:48;;;;;;;7.00;4.55;;;;;;;25.00;44.68;99083.66;4476595;32;20132;-67
2023/05/27 10:18:25;;;;;;;11.90;5.15;;;;;;;25.15;46.27;99080.59;4485003;31;20179;-67
2023/05/27 10:20:53;;;;;;;10.25;3.90;;;;;;;25.12;44.52;99091.78;4484860;31;20418;-67
2023/05/27 10:23:41;;;;;;;12.23;4.47;;;;;;;25.26;44.46;99082.50;4484451;31;20261;-67
2023/05/27 10:26:08;;;;;;;7.03;4.07;;;;;;;25.41;44.01;99084.03;4485143;31;20141;-67
2023/05/27 10:28:39;;;;;;;8.68;4.28;;;;;;;25.30;44.11;99078.37;4484669;32;20122;-67
2023/05/27 10:31:13;;;;;;;11.15;3.80;;;;;;;24.95;42.54;99087.00;4484865;31;20114;-67
2023/05/27 10:33:48;;;;;;;10.82;4.15;;;;;;;25.24;46.15;99079.25;4483316;32;20080;-67
2023/05/27 10:36:17;;;;;;;10.07;4.82;;;;;;;25.20;42.37;99082.59;4484522;31;20193;-67
2023/05/27 10:38:58;;;;;;;7.20;4.22;;;;;;;24.31;43.87;99080.19;4483420;31;20084;-67
2023/05/27 10:41:27;;;;;;;11.48;3.80;;;;;;;24.61;46.22;99083.03;4484509;31;20088;-68
2023/05/27 10:43:58;;;;;;;9.20;4.28;;;;;;;25.02;44.42;99080.75;4483109;32;20084;-67
2023/05/27 10:46:26;;;;;;;8.50;4.45;;;;;;;24.64;44.79;99082.56;4484614;32;20128;-67
2023/05/27 10:48:54;;;;;;;10.10;3.83;;;;;;;25.01;45.15;99087.13;4484660;31;20089;-67
2023/05/27 10:51:31;;;;;;;7.55;4.10;;;;;;;25.25;43.24;99069.31;4484494;32;20100;-67
2023/05/27 10:54:03;;;;;;;10.32;4.50;;;;;;;25.28;44.95;99069.69;4484143;31;20096;-67
2023/05/27 10:56:51;;;;;;;8.88;4.00;;;;;;;25.50;43.87;99072.75;4484150;31;20080;-68
2023/05/27 10:59:22;;;;;;;6.85;3.95;;;;;;;25.52;42.71;99077.88;4482809;32;20489;-67
2023/05/27 11:01:53;;;;;;;8.40;3.90;;;;;;;24.90;45.38;99080.66;4484371;31;20114;-67
2023/05/27 11:04:22;;;;;;;7.65;4.70;;;;;;;25.17;44.35;99073.13;4484399;31;20347;-67
2023/05/27 11:07:00;;;;;;;7.60;4.50;;;;;;;25.48;43.79;99076.69;4484541;31;20119;-67
2023/05/27 11:09:42;;;;;;;11.12;4.55;;;;;;;25.54;44.32;99067.72;4484492;31;20092;-67
2023/05/27 11:12:16;;;;;;;7.00;4.22;;;;;;;25.12;42.38;99064.97;4481672;31;20096;-67
2023/05/27 11:14:48;;;;;;;10.02;4.70;;;;;;;25.08;40.79;99061.91;4468952;32;20077;-67
2023/05/27 11:17:15;;;;;;;11.85;4.70;;;;;;;25.28;42.92;99063.50;4484199;31;20149;-67
2023/05/27 11:19:46;;;;;;;9.57;4.78;;;;;;;25.53;39.51;99066.09;4484052;31;20498;-67
2023/05/27 11:22:14;;;;;;;6.57;4.47;;;;;;;26.15;41.41;99067.69;4483983;32;20122;-67
2023/05/27 11:24:42;;;;;;;7.35;4.30;;;;;;;25.76;38.05;99054.63;4483768;31;20177;-67
2023/05/27 11:27:10;;;;;;;6.93;4.05;;;;;;;26.05;37.58;99059.41;4484047;31;20104;-67
2023/05/27 11:29:50;;;;;;;9.00;4.15;;;;;;;26.41;37.42;99058.38;4484012;31;20536;-67
2023/05/27 11:32:18;;;;;;;9.40;4.28;;;;;;;26.39;38.25;99053.22;4483987;31;20361;-67